sensor_id;sensor_type;location;lat;lon;timestamp;temperature;humidity
16408;DHT22;8313;49.894;8.084;2023-01-29T00:01:52;2.50;99.90
16408;DHT22;8313;49.894;8.084;2023-01-29T00:04:18;2.50;99.90
16408;DHT22;8313;49.894;8.084;2023-01-29T00:06:44;2.50;99.90
16408;DHT22;8313;49.894;8.084;2023-01-29T00:09:10;2.50;99.90
16408;DHT22;8313;49.894;8.084;2023-01-29T00:11:36;2.50;99.90
16408;DHT22;8313;49.894;8.084;2023-01-29T00:14:02;2.50;99.90
16408;DHT22;8313;49.894;8.084;2023-01-29T00:16:28;2.50;99.90
16408;DHT22;8313;49.894;8.084;2023-01-29T00:18:54;2.50;99.90
16408;DHT22;8313;49.894;8.084;2023-01-29T00:21:21;2.50;99.90
16408;DHT22;8313;49.894;8.084;2023-01-29T00:23:47;2.50;99.90
16408;DHT22;8313;49.894;8.084;2023-01-29T00:26:13;2.50;99.90
16408;DHT22;8313;49.894;8.084;2023-01-29T00:28:43;2.40;99.90
16408;DHT22;8313;49.894;8.084;2023-01-29T00:31:10;2.40;99.90
16408;DHT22;8313;49.894;8.084;2023-01-29T00:33:36;2.40;99.90
16408;DHT22;8313;49.894;8.084;2023-01-29T00:36:06;2.50;99.90
16408;DHT22;8313;49.894;8.084;2023-01-29T00:38:33;2.50;99.90
16408;DHT22;8313;49.894;8.084;2023-01-29T00:43:51;2.40;99.90
16408;DHT22;8313;49.894;8.084;2023-01-29T00:46:35;2.40;99.90
16408;DHT22;8313;49.894;8.084;2023-01-29T00:49:02;2.40;99.90
16408;DHT22;8313;49.894;8.084;2023-01-29T00:51:29;2.40;99.90
16408;DHT22;8313;49.894;8.084;2023-01-29T00:53:55;2.40;99.90
16408;DHT22;8313;49.894;8.084;2023-01-29T00:56:26;2.40;99.90
16408;DHT22;8313;49.894;8.084;2023-01-29T00:58:52;2.40;99.90
16408;DHT22;8313;49.894;8.084;2023-01-29T01:01:19;2.40;99.90
16408;DHT22;8313;49.894;8.084;2023-01-29T01:04:05;2.40;99.90
16408;DHT22;8313;49.894;8.084;2023-01-29T01:06:31;2.40;99.90
16408;DHT22;8313;49.894;8.084;2023-01-29T01:08:57;2.40;99.90
16408;DHT22;8313;49.894;8.084;2023-01-29T01:11:41;2.30;99.90
16408;DHT22;8313;49.894;8.084;2023-01-29T01:14:07;2.40;99.90
16408;DHT22;8313;49.894;8.084;2023-01-29T01:16:33;2.40;99.90
16408;DHT22;8313;49.894;8.084;2023-01-29T01:18:58;2.40;99.90
16408;DHT22;8313;49.894;8.084;2023-01-29T01:21:24;2.30;99.90
16408;DHT22;8313;49.894;8.084;2023-01-29T01:23:50;2.30;99.90
16408;DHT22;8313;49.894;8.084;2023-01-29T01:26:17;2.40;99.90
16408;DHT22;8313;49.894;8.084;2023-01-29T01:28:46;2.40;99.90
16408;DHT22;8313;49.894;8.084;2023-01-29T01:31:12;2.30;99.90
16408;DHT22;8313;49.894;8.084;2023-01-29T01:33:39;2.20;99.90
16408;DHT22;8313;49.894;8.084;2023-01-29T01:36:06;2.30;99.90
16408;DHT22;8313;49.894;8.084;2023-01-29T01:38:38;2.40;99.90
16408;DHT22;8313;49.894;8.084;2023-01-29T01:41:18;2.40;99.90
16408;DHT22;8313;49.894;8.084;2023-01-29T01:43:56;2.40;99.90
16408;DHT22;8313;49.894;8.084;2023-01-29T01:46:25;2.40;99.90
16408;DHT22;8313;49.894;8.084;2023-01-29T01:48:57;2.40;99.90
16408;DHT22;8313;49.894;8.084;2023-01-29T01:51:25;2.50;99.90
16408;DHT22;8313;49.894;8.084;2023-01-29T01:53:58;2.40;99.90
16408;DHT22;8313;49.894;8.084;2023-01-29T01:56:29;2.50;99.90
16408;DHT22;8313;49.894;8.084;2023-01-29T01:59:06;2.50;99.90
16408;DHT22;8313;49.894;8.084;2023-01-29T02:01:32;2.50;99.90
16408;DHT22;8313;49.894;8.084;2023-01-29T02:04:13;2.50;99.90
16408;DHT22;8313;49.894;8.084;2023-01-29T02:07:01;2.40;99.90
16408;DHT22;8313;49.894;8.084;2023-01-29T02:10:13;2.40;99.90
16408;DHT22;8313;49.894;8.084;2023-01-29T02:12:40;2.40;99.90
16408;DHT22;8313;49.894;8.084;2023-01-29T02:15:06;2.40;99.90
16408;DHT22;8313;49.894;8.084;2023-01-29T02:17:32;2.40;99.90
16408;DHT22;8313;49.894;8.084;2023-01-29T02:39:03;2.40;99.90
16408;DHT22;8313;49.894;8.084;2023-01-29T02:41:45;2.30;99.90
16408;DHT22;8313;49.894;8.084;2023-01-29T02:44:19;2.20;99.90
16408;DHT22;8313;49.894;8.084;2023-01-29T02:47:02;2.20;99.90
16408;DHT22;8313;49.894;8.084;2023-01-29T02:54:40;2.10;99.90
16408;DHT22;8313;49.894;8.084;2023-01-29T02:57:23;2.20;99.90
16408;DHT22;8313;49.894;8.084;2023-01-29T03:00:02;2.20;99.90
16408;DHT22;8313;49.894;8.084;2023-01-29T03:02:40;2.20;99.90
16408;DHT22;8313;49.894;8.084;2023-01-29T03:05:14;2.30;99.90
16408;DHT22;8313;49.894;8.084;2023-01-29T03:07:48;2.20;99.90
16408;DHT22;8313;49.894;8.084;2023-01-29T03:10:38;2.30;99.90
16408;DHT22;8313;49.894;8.084;2023-01-29T03:13:29;2.20;99.90
16408;DHT22;8313;49.894;8.084;2023-01-29T03:16:03;2.20;99.90
16408;DHT22;8313;49.894;8.084;2023-01-29T03:18:43;2.20;99.90
16408;DHT22;8313;49.894;8.084;2023-01-29T03:21:22;2.30;99.90
16408;DHT22;8313;49.894;8.084;2023-01-29T03:24:12;2.20;99.90
16408;DHT22;8313;49.894;8.084;2023-01-29T03:27:01;2.30;99.90
16408;DHT22;8313;49.894;8.084;2023-01-29T03:29:49;2.20;99.90
16408;DHT22;8313;49.894;8.084;2023-01-29T03:32:47;2.10;99.90
16408;DHT22;8313;49.894;8.084;2023-01-29T03:35:20;2.20;99.90
16408;DHT22;8313;49.894;8.084;2023-01-29T03:37:57;2.20;99.90
16408;DHT22;8313;49.894;8.084;2023-01-29T03:40:24;2.10;99.90
16408;DHT22;8313;49.894;8.084;2023-01-29T03:48:39;2.20;99.90
16408;DHT22;8313;49.894;8.084;2023-01-29T03:51:35;2.10;99.90
16408;DHT22;8313;49.894;8.084;2023-01-29T03:54:15;2.10;99.90
16408;DHT22;8313;49.894;8.084;2023-01-29T04:02:24;2.20;99.90
16408;DHT22;8313;49.894;8.084;2023-01-29T04:05:04;2.20;99.90
16408;DHT22;8313;49.894;8.084;2023-01-29T04:07:39;2.30;99.90
16408;DHT22;8313;49.894;8.084;2023-01-29T04:10:14;2.20;99.90
16408;DHT22;8313;49.894;8.084;2023-01-29T04:12:55;2.20;99.90
16408;DHT22;8313;49.894;8.084;2023-01-29T04:15:23;2.20;99.90
16408;DHT22;8313;49.894;8.084;2023-01-29T04:17:52;2.10;99.90
16408;DHT22;8313;49.894;8.084;2023-01-29T04:20:34;2.10;99.90
16408;DHT22;8313;49.894;8.084;2023-01-29T04:23:00;2.20;99.90
16408;DHT22;8313;49.894;8.084;2023-01-29T04:25:44;2.20;99.90
16408;DHT22;8313;49.894;8.084;2023-01-29T04:28:16;2.20;99.90
16408;DHT22;8313;49.894;8.084;2023-01-29T04:31:03;2.30;99.90
16408;DHT22;8313;49.894;8.084;2023-01-29T04:36:37;2.30;99.90
16408;DHT22;8313;49.894;8.084;2023-01-29T04:39:11;2.30;99.90
16408;DHT22;8313;49.894;8.084;2023-01-29T04:41:42;2.20;99.90
16408;DHT22;8313;49.894;8.084;2023-01-29T04:49:46;2.20;99.90
16408;DHT22;8313;49.894;8.084;2023-01-29T04:57:39;2.10;99.90
16408;DHT22;8313;49.894;8.084;2023-01-29T05:00:17;2.20;99.90
16408;DHT22;8313;49.894;8.084;2023-01-29T05:02:45;2.20;99.90
16408;DHT22;8313;49.894;8.084;2023-01-29T05:05:13;2.10;99.90
16408;DHT22;8313;49.894;8.084;2023-01-29T05:07:41;2.00;99.90
16408;DHT22;8313;49.894;8.084;2023-01-29T05:10:09;1.90;99.90
16408;DHT22;8313;49.894;8.084;2023-01-29T05:12:37;2.00;99.90
16408;DHT22;8313;49.894;8.084;2023-01-29T05:15:08;2.10;99.90
16408;DHT22;8313;49.894;8.084;2023-01-29T05:17:36;2.10;99.90
16408;DHT22;8313;49.894;8.084;2023-01-29T05:20:02;2.20;99.90
16408;DHT22;8313;49.894;8.084;2023-01-29T05:22:28;2.10;99.90
16408;DHT22;8313;49.894;8.084;2023-01-29T05:24:54;2.10;99.90
16408;DHT22;8313;49.894;8.084;2023-01-29T05:27:26;2.10;99.90
16408;DHT22;8313;49.894;8.084;2023-01-29T05:30:12;2.20;99.90
16408;DHT22;8313;49.894;8.084;2023-01-29T05:32:38;2.20;99.90
16408;DHT22;8313;49.894;8.084;2023-01-29T05:35:05;2.20;99.90
16408;DHT22;8313;49.894;8.084;2023-01-29T05:37:30;2.20;99.90
16408;DHT22;8313;49.894;8.084;2023-01-29T05:39:56;2.20;99.90
16408;DHT22;8313;49.894;8.084;2023-01-29T05:42:22;2.20;99.90
16408;DHT22;8313;49.894;8.084;2023-01-29T05:44:48;2.20;99.90
16408;DHT22;8313;49.894;8.084;2023-01-29T05:47:18;2.20;99.90
16408;DHT22;8313;49.894;8.084;2023-01-29T05:49:44;2.10;99.90
16408;DHT22;8313;49.894;8.084;2023-01-29T05:52:09;2.10;99.90
16408;DHT22;8313;49.894;8.084;2023-01-29T05:54:35;2.10;99.90
16408;DHT22;8313;49.894;8.084;2023-01-29T05:57:01;2.00;99.90
16408;DHT22;8313;49.894;8.084;2023-01-29T05:59:26;2.00;99.90
16408;DHT22;8313;49.894;8.084;2023-01-29T06:01:52;2.00;99.90
16408;DHT22;8313;49.894;8.084;2023-01-29T06:04:17;2.00;99.90
16408;DHT22;8313;49.894;8.084;2023-01-29T06:06:43;2.00;99.90
16408;DHT22;8313;49.894;8.084;2023-01-29T06:09:10;2.00;99.90
16408;DHT22;8313;49.894;8.084;2023-01-29T06:11:36;2.00;99.90
16408;DHT22;8313;49.894;8.084;2023-01-29T06:14:02;2.00;99.90
16408;DHT22;8313;49.894;8.084;2023-01-29T06:16:27;1.90;99.90
16408;DHT22;8313;49.894;8.084;2023-01-29T06:18:53;1.80;99.90
16408;DHT22;8313;49.894;8.084;2023-01-29T06:21:18;1.80;99.90
16408;DHT22;8313;49.894;8.084;2023-01-29T06:23:44;1.80;99.90
16408;DHT22;8313;49.894;8.084;2023-01-29T06:26:11;1.90;99.90
16408;DHT22;8313;49.894;8.084;2023-01-29T06:28:38;1.90;99.90
16408;DHT22;8313;49.894;8.084;2023-01-29T06:31:05;1.90;99.90
16408;DHT22;8313;49.894;8.084;2023-01-29T06:33:31;1.90;99.90
16408;DHT22;8313;49.894;8.084;2023-01-29T06:36:02;1.90;99.90
16408;DHT22;8313;49.894;8.084;2023-01-29T06:38:28;2.00;99.90
16408;DHT22;8313;49.894;8.084;2023-01-29T06:40:54;2.00;99.90
16408;DHT22;8313;49.894;8.084;2023-01-29T06:43:20;2.00;99.90
16408;DHT22;8313;49.894;8.084;2023-01-29T06:45:54;2.00;99.90
16408;DHT22;8313;49.894;8.084;2023-01-29T06:48:21;1.90;99.90
16408;DHT22;8313;49.894;8.084;2023-01-29T06:50:47;1.90;99.90
16408;DHT22;8313;49.894;8.084;2023-01-29T06:53:14;1.90;99.90
16408;DHT22;8313;49.894;8.084;2023-01-29T06:55:41;1.80;99.90
16408;DHT22;8313;49.894;8.084;2023-01-29T06:58:08;1.80;99.90
16408;DHT22;8313;49.894;8.084;2023-01-29T07:00:35;1.80;99.90
16408;DHT22;8313;49.894;8.084;2023-01-29T07:03:01;1.80;99.90
16408;DHT22;8313;49.894;8.084;2023-01-29T07:05:27;1.80;99.90
16408;DHT22;8313;49.894;8.084;2023-01-29T07:07:53;1.80;99.90
16408;DHT22;8313;49.894;8.084;2023-01-29T07:10:19;1.80;99.90
16408;DHT22;8313;49.894;8.084;2023-01-29T07:12:44;1.80;99.90
16408;DHT22;8313;49.894;8.084;2023-01-29T07:15:11;1.80;99.90
16408;DHT22;8313;49.894;8.084;2023-01-29T07:17:54;1.80;99.90
16408;DHT22;8313;49.894;8.084;2023-01-29T07:20:19;1.70;99.90
16408;DHT22;8313;49.894;8.084;2023-01-29T07:22:45;1.80;99.90
16408;DHT22;8313;49.894;8.084;2023-01-29T07:25:11;1.80;99.90
16408;DHT22;8313;49.894;8.084;2023-01-29T07:27:36;1.80;99.90
16408;DHT22;8313;49.894;8.084;2023-01-29T07:30:02;1.90;99.90
16408;DHT22;8313;49.894;8.084;2023-01-29T07:32:28;1.90;99.90
16408;DHT22;8313;49.894;8.084;2023-01-29T07:34:53;1.90;99.90
16408;DHT22;8313;49.894;8.084;2023-01-29T07:37:19;1.70;99.90
16408;DHT22;8313;49.894;8.084;2023-01-29T07:39:45;1.80;99.90
16408;DHT22;8313;49.894;8.084;2023-01-29T07:42:12;1.90;99.90
16408;DHT22;8313;49.894;8.084;2023-01-29T07:44:37;1.80;99.90
16408;DHT22;8313;49.894;8.084;2023-01-29T07:47:03;1.90;99.90
16408;DHT22;8313;49.894;8.084;2023-01-29T07:49:28;1.90;99.90
16408;DHT22;8313;49.894;8.084;2023-01-29T07:51:54;1.80;99.90
16408;DHT22;8313;49.894;8.084;2023-01-29T07:54:20;1.80;99.90
16408;DHT22;8313;49.894;8.084;2023-01-29T07:56:46;1.80;99.90
16408;DHT22;8313;49.894;8.084;2023-01-29T07:59:11;1.90;99.90
16408;DHT22;8313;49.894;8.084;2023-01-29T08:01:37;1.90;99.90
16408;DHT22;8313;49.894;8.084;2023-01-29T08:04:03;2.00;99.90
16408;DHT22;8313;49.894;8.084;2023-01-29T08:06:29;2.00;99.90
16408;DHT22;8313;49.894;8.084;2023-01-29T08:08:55;2.00;99.90
16408;DHT22;8313;49.894;8.084;2023-01-29T08:11:22;1.90;99.90
16408;DHT22;8313;49.894;8.084;2023-01-29T08:13:48;1.90;99.90
16408;DHT22;8313;49.894;8.084;2023-01-29T08:16:13;2.00;99.90
16408;DHT22;8313;49.894;8.084;2023-01-29T08:18:39;1.90;99.90
16408;DHT22;8313;49.894;8.084;2023-01-29T08:21:08;1.80;99.90
16408;DHT22;8313;49.894;8.084;2023-01-29T08:23:34;1.80;99.90
16408;DHT22;8313;49.894;8.084;2023-01-29T08:26:01;1.90;99.90
16408;DHT22;8313;49.894;8.084;2023-01-29T08:28:27;1.90;99.90
16408;DHT22;8313;49.894;8.084;2023-01-29T08:30:53;1.90;99.90
16408;DHT22;8313;49.894;8.084;2023-01-29T08:33:19;1.90;99.90
16408;DHT22;8313;49.894;8.084;2023-01-29T08:35:51;1.90;99.90
16408;DHT22;8313;49.894;8.084;2023-01-29T08:38:17;1.90;99.90
16408;DHT22;8313;49.894;8.084;2023-01-29T08:40:43;1.60;99.90
16408;DHT22;8313;49.894;8.084;2023-01-29T08:43:10;1.60;99.90
16408;DHT22;8313;49.894;8.084;2023-01-29T08:45:40;1.70;99.90
16408;DHT22;8313;49.894;8.084;2023-01-29T08:48:06;1.80;99.90
16408;DHT22;8313;49.894;8.084;2023-01-29T08:50:33;1.70;99.90
16408;DHT22;8313;49.894;8.084;2023-01-29T08:53:02;1.80;99.90
16408;DHT22;8313;49.894;8.084;2023-01-29T08:55:29;1.90;99.90
16408;DHT22;8313;49.894;8.084;2023-01-29T08:57:54;1.90;99.90
16408;DHT22;8313;49.894;8.084;2023-01-29T09:00:23;1.80;99.90
16408;DHT22;8313;49.894;8.084;2023-01-29T09:02:49;1.90;99.90
16408;DHT22;8313;49.894;8.084;2023-01-29T09:05:15;1.90;99.90
16408;DHT22;8313;49.894;8.084;2023-01-29T09:07:41;1.90;99.90
16408;DHT22;8313;49.894;8.084;2023-01-29T09:10:08;1.90;99.90
16408;DHT22;8313;49.894;8.084;2023-01-29T09:12:33;1.90;99.90
16408;DHT22;8313;49.894;8.084;2023-01-29T09:14:59;1.90;99.90
16408;DHT22;8313;49.894;8.084;2023-01-29T09:17:25;1.80;99.90
16408;DHT22;8313;49.894;8.084;2023-01-29T09:19:51;1.90;99.90
16408;DHT22;8313;49.894;8.084;2023-01-29T09:22:18;1.90;99.90
16408;DHT22;8313;49.894;8.084;2023-01-29T09:24:44;1.90;99.90
16408;DHT22;8313;49.894;8.084;2023-01-29T09:27:10;1.90;99.90
16408;DHT22;8313;49.894;8.084;2023-01-29T09:29:36;1.90;99.90
16408;DHT22;8313;49.894;8.084;2023-01-29T09:32:05;1.90;99.90
16408;DHT22;8313;49.894;8.084;2023-01-29T09:34:31;1.90;99.90
16408;DHT22;8313;49.894;8.084;2023-01-29T09:36:56;1.90;99.90
16408;DHT22;8313;49.894;8.084;2023-01-29T09:39:22;1.90;99.90
16408;DHT22;8313;49.894;8.084;2023-01-29T09:42:02;1.90;99.90
16408;DHT22;8313;49.894;8.084;2023-01-29T09:47:15;1.80;99.90
16408;DHT22;8313;49.894;8.084;2023-01-29T09:49:49;1.90;99.90
16408;DHT22;8313;49.894;8.084;2023-01-29T09:52:21;1.80;99.90
16408;DHT22;8313;49.894;8.084;2023-01-29T09:54:53;1.80;99.90
16408;DHT22;8313;49.894;8.084;2023-01-29T10:00:37;1.80;99.90
16408;DHT22;8313;49.894;8.084;2023-01-29T10:03:42;1.90;99.90
16408;DHT22;8313;49.894;8.084;2023-01-29T10:11:36;1.70;99.90
16408;DHT22;8313;49.894;8.084;2023-01-29T10:17:02;1.70;99.90
16408;DHT22;8313;49.894;8.084;2023-01-29T10:19:46;1.70;99.90
16408;DHT22;8313;49.894;8.084;2023-01-29T10:22:39;1.80;99.90
16408;DHT22;8313;49.894;8.084;2023-01-29T10:25:15;1.80;99.90
16408;DHT22;8313;49.894;8.084;2023-01-29T10:27:47;1.90;99.90
16408;DHT22;8313;49.894;8.084;2023-01-29T10:32:47;1.70;99.90
16408;DHT22;8313;49.894;8.084;2023-01-29T10:35:28;1.80;99.90
16408;DHT22;8313;49.894;8.084;2023-01-29T10:37:57;1.80;99.90
16408;DHT22;8313;49.894;8.084;2023-01-29T10:42:57;1.90;99.90
16408;DHT22;8313;49.894;8.084;2023-01-29T10:45:38;1.90;99.90
16408;DHT22;8313;49.894;8.084;2023-01-29T10:53:45;2.00;99.90
16408;DHT22;8313;49.894;8.084;2023-01-29T10:56:44;1.90;99.90
16408;DHT22;8313;49.894;8.084;2023-01-29T11:01:57;1.80;99.90
16408;DHT22;8313;49.894;8.084;2023-01-29T11:04:25;1.70;99.90
16408;DHT22;8313;49.894;8.084;2023-01-29T11:06:52;1.70;99.90
16408;DHT22;8313;49.894;8.084;2023-01-29T11:11:51;1.80;99.90
16408;DHT22;8313;49.894;8.084;2023-01-29T11:14:25;1.90;99.90
16408;DHT22;8313;49.894;8.084;2023-01-29T11:16:52;2.00;99.90
16408;DHT22;8313;49.894;8.084;2023-01-29T11:19:38;2.00;99.90
16408;DHT22;8313;49.894;8.084;2023-01-29T11:22:04;2.10;99.90
16408;DHT22;8313;49.894;8.084;2023-01-29T11:24:36;2.10;99.90
16408;DHT22;8313;49.894;8.084;2023-01-29T11:27:13;2.10;99.90
16408;DHT22;8313;49.894;8.084;2023-01-29T11:29:42;2.10;99.90
16408;DHT22;8313;49.894;8.084;2023-01-29T11:35:18;2.00;99.90
16408;DHT22;8313;49.894;8.084;2023-01-29T11:37:45;2.00;99.90
16408;DHT22;8313;49.894;8.084;2023-01-29T11:40:34;2.00;99.90
16408;DHT22;8313;49.894;8.084;2023-01-29T11:45:45;2.00;99.90
16408;DHT22;8313;49.894;8.084;2023-01-29T11:48:19;2.00;99.90
16408;DHT22;8313;49.894;8.084;2023-01-29T11:50:57;2.20;99.90
16408;DHT22;8313;49.894;8.084;2023-01-29T11:53:45;2.10;99.90
16408;DHT22;8313;49.894;8.084;2023-01-29T11:58:56;2.20;99.90
16408;DHT22;8313;49.894;8.084;2023-01-29T12:01:35;2.10;99.90
16408;DHT22;8313;49.894;8.084;2023-01-29T12:04:02;2.10;99.90
16408;DHT22;8313;49.894;8.084;2023-01-29T12:06:39;2.20;99.90
16408;DHT22;8313;49.894;8.084;2023-01-29T12:09:13;2.20;99.90
16408;DHT22;8313;49.894;8.084;2023-01-29T12:11:39;2.20;99.90
16408;DHT22;8313;49.894;8.084;2023-01-29T12:14:31;2.30;99.90
16408;DHT22;8313;49.894;8.084;2023-01-29T12:17:03;2.30;99.90
16408;DHT22;8313;49.894;8.084;2023-01-29T12:19:45;2.30;99.90
16408;DHT22;8313;49.894;8.084;2023-01-29T12:25:17;2.20;99.90
16408;DHT22;8313;49.894;8.084;2023-01-29T12:30:36;2.20;99.90
16408;DHT22;8313;49.894;8.084;2023-01-29T12:33:17;2.30;99.90
16408;DHT22;8313;49.894;8.084;2023-01-29T12:35:53;2.50;99.90
16408;DHT22;8313;49.894;8.084;2023-01-29T12:38:21;2.60;99.90
16408;DHT22;8313;49.894;8.084;2023-01-29T12:43:54;2.70;99.90
16408;DHT22;8313;49.894;8.084;2023-01-29T12:46:30;2.60;99.90
16408;DHT22;8313;49.894;8.084;2023-01-29T12:49:02;2.70;99.90
16408;DHT22;8313;49.894;8.084;2023-01-29T12:51:34;2.80;99.90
16408;DHT22;8313;49.894;8.084;2023-01-29T12:54:06;2.70;99.90
16408;DHT22;8313;49.894;8.084;2023-01-29T12:56:43;2.70;99.90
16408;DHT22;8313;49.894;8.084;2023-01-29T12:59:23;2.90;99.90
16408;DHT22;8313;49.894;8.084;2023-01-29T13:01:53;3.00;99.90
16408;DHT22;8313;49.894;8.084;2023-01-29T13:07:11;3.10;99.90
16408;DHT22;8313;49.894;8.084;2023-01-29T13:09:42;3.20;99.90
16408;DHT22;8313;49.894;8.084;2023-01-29T13:12:16;3.30;99.90
16408;DHT22;8313;49.894;8.084;2023-01-29T13:14:51;3.50;99.90
16408;DHT22;8313;49.894;8.084;2023-01-29T13:17:40;3.50;99.90
16408;DHT22;8313;49.894;8.084;2023-01-29T13:20:20;3.40;99.90
16408;DHT22;8313;49.894;8.084;2023-01-29T13:22:49;3.40;99.90
16408;DHT22;8313;49.894;8.084;2023-01-29T13:25:18;3.40;99.90
16408;DHT22;8313;49.894;8.084;2023-01-29T13:27:44;3.50;99.90
16408;DHT22;8313;49.894;8.084;2023-01-29T13:32:54;3.60;99.90
16408;DHT22;8313;49.894;8.084;2023-01-29T13:35:22;3.70;99.90
16408;DHT22;8313;49.894;8.084;2023-01-29T13:37:51;3.70;99.90
16408;DHT22;8313;49.894;8.084;2023-01-29T13:42:49;3.80;99.90
16408;DHT22;8313;49.894;8.084;2023-01-29T13:45:42;3.90;99.90
16408;DHT22;8313;49.894;8.084;2023-01-29T13:50:44;4.00;99.90
16408;DHT22;8313;49.894;8.084;2023-01-29T13:53:26;4.10;99.90
16408;DHT22;8313;49.894;8.084;2023-01-29T13:55:53;4.20;99.90
16408;DHT22;8313;49.894;8.084;2023-01-29T14:00:58;4.10;99.90
16408;DHT22;8313;49.894;8.084;2023-01-29T14:13:42;4.10;99.90
16408;DHT22;8313;49.894;8.084;2023-01-29T14:21:20;4.00;99.90
16408;DHT22;8313;49.894;8.084;2023-01-29T14:23:53;4.10;99.90
16408;DHT22;8313;49.894;8.084;2023-01-29T14:31:40;4.20;99.90
16408;DHT22;8313;49.894;8.084;2023-01-29T14:34:16;4.10;99.90
16408;DHT22;8313;49.894;8.084;2023-01-29T14:36:44;4.20;99.90
16408;DHT22;8313;49.894;8.084;2023-01-29T14:39:40;4.20;99.90
16408;DHT22;8313;49.894;8.084;2023-01-29T14:42:27;4.10;99.90
16408;DHT22;8313;49.894;8.084;2023-01-29T14:49:52;4.10;99.90
16408;DHT22;8313;49.894;8.084;2023-01-29T14:52:25;4.10;99.90
16408;DHT22;8313;49.894;8.084;2023-01-29T14:54:57;4.20;99.90
16408;DHT22;8313;49.894;8.084;2023-01-29T14:57:24;4.20;99.90
16408;DHT22;8313;49.894;8.084;2023-01-29T14:59:56;4.30;99.90
16408;DHT22;8313;49.894;8.084;2023-01-29T15:02:26;4.20;99.90
16408;DHT22;8313;49.894;8.084;2023-01-29T15:04:59;4.20;99.90
16408;DHT22;8313;49.894;8.084;2023-01-29T15:10:50;4.10;99.90
16408;DHT22;8313;49.894;8.084;2023-01-29T15:16:31;4.10;99.90
16408;DHT22;8313;49.894;8.084;2023-01-29T15:19:11;4.00;99.90
16408;DHT22;8313;49.894;8.084;2023-01-29T15:21:38;4.00;99.90
16408;DHT22;8313;49.894;8.084;2023-01-29T15:24:05;4.00;99.90
16408;DHT22;8313;49.894;8.084;2023-01-29T15:26:32;4.00;99.90
16408;DHT22;8313;49.894;8.084;2023-01-29T15:29:00;4.00;99.90
16408;DHT22;8313;49.894;8.084;2023-01-29T15:31:27;4.00;99.90
16408;DHT22;8313;49.894;8.084;2023-01-29T15:33:55;4.00;99.90
16408;DHT22;8313;49.894;8.084;2023-01-29T15:36:27;4.00;99.90
16408;DHT22;8313;49.894;8.084;2023-01-29T15:41:38;3.80;99.90
16408;DHT22;8313;49.894;8.084;2023-01-29T15:44:14;3.70;99.90
16408;DHT22;8313;49.894;8.084;2023-01-29T15:46:50;3.60;99.90
16408;DHT22;8313;49.894;8.084;2023-01-29T15:49:24;3.50;99.90
16408;DHT22;8313;49.894;8.084;2023-01-29T15:52:02;3.60;99.90
16408;DHT22;8313;49.894;8.084;2023-01-29T15:54:30;3.50;99.90
16408;DHT22;8313;49.894;8.084;2023-01-29T15:56:56;3.50;99.90
16408;DHT22;8313;49.894;8.084;2023-01-29T15:59:25;3.60;99.90
16408;DHT22;8313;49.894;8.084;2023-01-29T16:01:52;3.50;99.90
16408;DHT22;8313;49.894;8.084;2023-01-29T16:04:28;3.50;99.90
16408;DHT22;8313;49.894;8.084;2023-01-29T16:06:56;3.60;99.90
16408;DHT22;8313;49.894;8.084;2023-01-29T16:09:24;3.50;99.90
16408;DHT22;8313;49.894;8.084;2023-01-29T16:11:52;3.50;99.90
16408;DHT22;8313;49.894;8.084;2023-01-29T16:14:23;3.70;99.90
16408;DHT22;8313;49.894;8.084;2023-01-29T16:16:50;3.70;99.90
16408;DHT22;8313;49.894;8.084;2023-01-29T16:19:23;3.80;99.90
16408;DHT22;8313;49.894;8.084;2023-01-29T16:24:20;3.70;99.90
16408;DHT22;8313;49.894;8.084;2023-01-29T16:26:49;3.70;99.90
16408;DHT22;8313;49.894;8.084;2023-01-29T16:29:18;3.70;99.90
16408;DHT22;8313;49.894;8.084;2023-01-29T16:31:47;3.70;99.90
16408;DHT22;8313;49.894;8.084;2023-01-29T16:34:25;3.60;99.90
16408;DHT22;8313;49.894;8.084;2023-01-29T16:36:54;3.60;99.90
16408;DHT22;8313;49.894;8.084;2023-01-29T16:39:32;3.60;99.90
16408;DHT22;8313;49.894;8.084;2023-01-29T16:44:39;3.50;99.90
16408;DHT22;8313;49.894;8.084;2023-01-29T16:47:19;3.50;99.90
16408;DHT22;8313;49.894;8.084;2023-01-29T16:49:49;3.50;99.90
16408;DHT22;8313;49.894;8.084;2023-01-29T16:54:42;3.40;99.90
16408;DHT22;8313;49.894;8.084;2023-01-29T16:57:17;3.50;99.90
16408;DHT22;8313;49.894;8.084;2023-01-29T16:59:44;3.50;99.90
16408;DHT22;8313;49.894;8.084;2023-01-29T17:02:31;3.40;99.90
16408;DHT22;8313;49.894;8.084;2023-01-29T17:05:02;3.40;99.90
16408;DHT22;8313;49.894;8.084;2023-01-29T17:07:29;3.20;99.90
16408;DHT22;8313;49.894;8.084;2023-01-29T17:10:00;3.10;99.90
16408;DHT22;8313;49.894;8.084;2023-01-29T17:12:26;3.00;99.90
16408;DHT22;8313;49.894;8.084;2023-01-29T17:14:57;3.00;99.90
16408;DHT22;8313;49.894;8.084;2023-01-29T17:17:33;2.90;99.90
16408;DHT22;8313;49.894;8.084;2023-01-29T17:20:14;3.00;99.90
16408;DHT22;8313;49.894;8.084;2023-01-29T17:22:40;3.10;99.90
16408;DHT22;8313;49.894;8.084;2023-01-29T17:25:06;3.10;99.90
16408;DHT22;8313;49.894;8.084;2023-01-29T17:27:32;3.10;99.90
16408;DHT22;8313;49.894;8.084;2023-01-29T17:29:58;3.00;99.90
16408;DHT22;8313;49.894;8.084;2023-01-29T17:32:24;2.70;99.90
16408;DHT22;8313;49.894;8.084;2023-01-29T17:34:52;2.70;99.90
16408;DHT22;8313;49.894;8.084;2023-01-29T17:37:17;2.70;99.90
16408;DHT22;8313;49.894;8.084;2023-01-29T17:39:45;2.70;99.90
16408;DHT22;8313;49.894;8.084;2023-01-29T17:42:13;2.80;99.90
16408;DHT22;8313;49.894;8.084;2023-01-29T17:44:41;2.70;99.90
16408;DHT22;8313;49.894;8.084;2023-01-29T17:47:11;2.60;99.90
16408;DHT22;8313;49.894;8.084;2023-01-29T17:49:38;2.40;99.90
16408;DHT22;8313;49.894;8.084;2023-01-29T17:52:04;2.30;99.90
16408;DHT22;8313;49.894;8.084;2023-01-29T17:54:30;2.20;99.90
16408;DHT22;8313;49.894;8.084;2023-01-29T17:56:55;2.10;99.90
16408;DHT22;8313;49.894;8.084;2023-01-29T17:59:25;2.20;99.90
16408;DHT22;8313;49.894;8.084;2023-01-29T18:01:53;2.20;99.90
16408;DHT22;8313;49.894;8.084;2023-01-29T18:04:18;2.10;99.90
16408;DHT22;8313;49.894;8.084;2023-01-29T18:06:46;1.90;99.90
16408;DHT22;8313;49.894;8.084;2023-01-29T18:09:18;2.00;99.90
16408;DHT22;8313;49.894;8.084;2023-01-29T18:11:46;1.80;99.90
16408;DHT22;8313;49.894;8.084;2023-01-29T18:14:13;1.80;99.90
16408;DHT22;8313;49.894;8.084;2023-01-29T18:16:39;1.60;99.90
16408;DHT22;8313;49.894;8.084;2023-01-29T18:19:25;1.60;99.90
16408;DHT22;8313;49.894;8.084;2023-01-29T18:21:56;1.50;99.90
16408;DHT22;8313;49.894;8.084;2023-01-29T18:24:21;1.70;99.90
16408;DHT22;8313;49.894;8.084;2023-01-29T18:26:48;1.60;99.90
16408;DHT22;8313;49.894;8.084;2023-01-29T18:29:15;1.60;99.90
16408;DHT22;8313;49.894;8.084;2023-01-29T18:31:41;1.40;99.90
16408;DHT22;8313;49.894;8.084;2023-01-29T18:34:06;1.40;99.90
16408;DHT22;8313;49.894;8.084;2023-01-29T18:36:32;1.20;99.90
16408;DHT22;8313;49.894;8.084;2023-01-29T18:38:58;1.20;99.90
16408;DHT22;8313;49.894;8.084;2023-01-29T18:41:23;1.10;99.90
16408;DHT22;8313;49.894;8.084;2023-01-29T18:43:49;1.10;99.90
16408;DHT22;8313;49.894;8.084;2023-01-29T18:46:17;1.20;99.90
16408;DHT22;8313;49.894;8.084;2023-01-29T18:48:43;1.20;99.90
16408;DHT22;8313;49.894;8.084;2023-01-29T18:51:09;1.30;99.90
16408;DHT22;8313;49.894;8.084;2023-01-29T18:53:34;1.40;99.90
16408;DHT22;8313;49.894;8.084;2023-01-29T18:56:04;1.50;99.90
16408;DHT22;8313;49.894;8.084;2023-01-29T18:58:31;1.40;99.90
16408;DHT22;8313;49.894;8.084;2023-01-29T19:00:56;1.70;99.90